EST,Max TemperatureF,Mean TemperatureF,Min TemperatureF,Max Dew PointF,MeanDew PointF,Min DewpointF,Max Humidity, Mean Humidity, Min Humidity, Max Sea Level PressureIn, Mean Sea Level PressureIn, Min Sea Level PressureIn, Max VisibilityMiles, Mean VisibilityMiles, Min VisibilityMiles, Max Wind SpeedMPH, Mean Wind SpeedMPH, Max Gust SpeedMPH,PrecipitationIn, CloudCover, Events, WindDirDegrees
2012-11-1,51,44,36,37,32,25,92,66,39,29.87,29.83,29.78,10,10,9,22,12,28,T,6,Rain,278
2012-11-2,49,42,34,32,29,27,70,62,53,30.10,29.99,29.86,10,10,10,20,8,23,0.00,5,,321
2012-11-3,43,37,30,36,32,28,92,77,62,30.21,30.16,30.11,10,10,7,10,4,12,0.03,6,Rain,334
2012-11-4,42,35,28,35,32,27,92,81,70,30.20,30.17,30.14,10,8,4,13,5,14,0.00,5,,338
2012-11-5,46,36,25,29,26,23,100,77,53,30.22,30.18,30.14,10,8,3,9,3,12,0.00,0,,58
2012-11-6,49,38,27,30,28,24,85,66,46,30.14,30.04,29.94,10,9,6,10,5,13,0.00,2,,101
2012-11-7,52,43,33,36,31,28,89,68,46,30.14,30.01,29.92,10,8,5,15,7,18,0.00,3,,3
2012-11-8,51,40,28,34,31,28,100,75,50,30.27,30.20,30.13,10,6,2,10,3,14,0.00,0,,280
2012-11-9,57,44,31,39,35,29,89,68,47,30.26,30.19,30.13,10,7,4,15,8,21,0.00,2,,186
2012-11-10,69,60,50,46,41,37,61,52,42,30.19,30.15,30.10,10,10,10,20,11,25,0.00,2,,190
2012-11-11,67,60,52,44,38,35,54,44,34,30.24,30.15,30.04,10,10,10,28,16,38,0.00,4,,184
2012-11-12,62,46,29,55,41,25,100,76,52,30.40,30.13,30.00,10,7,2,29,14,38,0.73,7,Rain-Snow,257
2012-11-13,39,33,27,26,23,21,85,69,52,30.55,30.49,30.41,10,10,10,10,5,14,0.00,1,,248
2012-11-14,41,32,22,28,24,20,88,74,59,30.58,30.51,30.42,10,9,6,14,5,16,0.00,4,,68
2012-11-15,46,35,24,30,27,23,92,73,53,30.41,30.38,30.35,10,7,3,8,3,10,0.00,4,,351
2012-11-16,50,38,26,35,29,24,100,76,52,30.52,30.46,30.39,10,6,2,10,4,13,0.00,0,,21
2012-11-17,56,41,25,33,29,26,100,68,35,30.60,30.54,30.50,10,8,3,14,5,16,0.00,0,,67
2012-11-18,58,44,30,31,27,25,85,57,28,30.50,30.45,30.40,10,10,9,10,5,12,0.00,1,,97
2012-11-19,58,45,32,37,31,25,71,56,40,30.40,30.32,30.21,10,10,10,8,2,9,0.00,5,,139
2012-11-20,58,50,42,39,37,35,76,62,47,30.19,30.14,30.09,10,10,9,9,2,9,T,7,Rain,112
2012-11-21,62,50,37,42,39,36,92,67,42,30.26,30.21,30.15,10,9,5,7,2,12,0.00,2,,87
2012-11-22,62,50,38,41,39,36,85,66,46,30.22,30.13,29.98,10,8,4,17,9,24,0.00,2,,189
2012-11-23,54,42,30,50,33,19,96,77,57,30.19,30.02,29.91,10,10,7,33,18,44,0.03,7,Rain,265
2012-11-24,31,29,27,22,21,19,75,69,63,30.24,30.19,30.10,10,10,9,16,11,21,0.00,8,,269
2012-11-25,46,37,27,29,24,19,75,60,45,30.12,30.00,29.91,10,10,10,24,11,32,0.00,5,,228
2012-11-26,49,40,30,30,28,26,85,64,42,30.28,30.17,30.06,10,10,7,16,4,21,0.00,5,,15
2012-11-27,36,31,25,30,23,19,92,74,56,30.39,30.33,30.26,10,9,6,18,6,22,0.00,6,,352
2012-11-28,42,32,22,24,21,19,88,66,44,30.43,30.38,30.32,10,8,4,15,7,18,0.00,1,,243
2012-11-29,46,36,26,28,25,22,78,64,49,30.41,30.34,30.26,10,8,5,16,9,21,0.00,2,,190
2012-11-30,56,45,33,39,32,27,75,59,43,30.24,30.21,30.15,10,10,10,21,9,28,0.00,6,,183